createdAt,value
2017-07-03T00:02:20.652Z,13.80
2017-07-03T00:04:48.874Z,13.80
2017-07-03T00:07:17.070Z,13.80
2017-07-03T00:09:46.482Z,13.70
2017-07-03T00:12:14.828Z,13.80
2017-07-03T00:14:42.945Z,13.80
2017-07-03T00:17:11.083Z,13.70
2017-07-03T00:19:39.211Z,13.70
2017-07-03T00:22:07.378Z,13.70
2017-07-03T00:24:35.513Z,13.70
2017-07-03T00:27:03.628Z,13.70
2017-07-03T00:29:31.917Z,13.70
2017-07-03T00:32:00.058Z,13.70
2017-07-03T00:34:28.200Z,13.70
2017-07-03T00:36:56.360Z,13.70
2017-07-03T00:39:24.509Z,13.70
2017-07-03T00:41:52.724Z,13.60
2017-07-03T00:44:20.904Z,13.60
2017-07-03T00:46:49.091Z,13.50
2017-07-03T00:49:17.229Z,13.50
2017-07-03T00:51:45.430Z,13.50
2017-07-03T00:54:13.545Z,13.60
2017-07-03T00:56:41.672Z,13.50
2017-07-03T00:59:09.945Z,13.50
2017-07-03T01:01:39.270Z,13.50
2017-07-03T01:04:07.393Z,13.50
2017-07-03T01:06:35.569Z,13.50
2017-07-03T01:09:03.690Z,13.40
2017-07-03T01:11:31.802Z,13.40
2017-07-03T01:13:59.972Z,13.40
2017-07-03T01:16:28.093Z,13.30
2017-07-03T01:18:57.027Z,13.30
2017-07-03T01:21:25.326Z,13.20
2017-07-03T01:23:53.509Z,13.30
2017-07-03T01:26:22.103Z,13.20
2017-07-03T01:28:50.319Z,13.20
2017-07-03T01:31:18.471Z,13.20
2017-07-03T01:33:46.779Z,13.10
2017-07-03T01:36:15.001Z,13.10
2017-07-03T01:38:43.244Z,13.20
2017-07-03T01:41:12.592Z,13.10
2017-07-03T01:43:40.753Z,13.10
2017-07-03T01:46:09.382Z,13.10
2017-07-03T01:48:37.500Z,13.10
2017-07-03T01:51:05.651Z,13.00
2017-07-03T01:53:34.544Z,12.90
2017-07-03T01:56:02.941Z,12.90
2017-07-03T01:58:31.092Z,12.90
2017-07-03T02:00:59.227Z,12.90
2017-07-03T02:03:27.401Z,12.80
2017-07-03T02:05:55.577Z,12.80
2017-07-03T02:08:23.711Z,12.70
2017-07-03T02:10:51.856Z,12.70
2017-07-03T02:13:19.987Z,12.70
2017-07-03T02:15:48.119Z,12.70
2017-07-03T02:18:17.137Z,12.60
2017-07-03T02:20:45.267Z,12.60
2017-07-03T02:23:13.461Z,12.60
2017-07-03T02:25:41.755Z,12.60
2017-07-03T02:28:09.973Z,12.60
2017-07-03T02:30:38.231Z,12.60
2017-07-03T02:33:06.561Z,12.70
2017-07-03T02:35:34.819Z,12.70
2017-07-03T02:38:02.942Z,12.60
2017-07-03T02:40:31.101Z,12.50
2017-07-03T02:43:00.469Z,12.40
2017-07-03T02:45:28.620Z,12.40
2017-07-03T02:47:56.758Z,12.40
2017-07-03T02:50:24.997Z,12.40
2017-07-03T02:52:53.173Z,12.40
2017-07-03T02:55:21.280Z,12.40
2017-07-03T02:57:49.478Z,12.30
2017-07-03T03:00:17.595Z,12.20
2017-07-03T03:02:45.725Z,12.20
2017-07-03T03:05:14.123Z,12.20
2017-07-03T03:07:42.345Z,12.20
2017-07-03T03:10:10.529Z,12.20
2017-07-03T03:12:38.636Z,12.10
2017-07-03T03:15:06.765Z,12.10
2017-07-03T03:17:34.906Z,12.10
2017-07-03T03:20:03.035Z,12.10
2017-07-03T03:22:31.178Z,12.20
2017-07-03T03:24:59.341Z,12.20
2017-07-03T03:27:27.537Z,12.20
2017-07-03T03:29:55.675Z,12.20
2017-07-03T03:32:23.794Z,12.30
2017-07-03T03:34:51.953Z,12.30
2017-07-03T03:37:20.682Z,12.30
2017-07-03T03:39:48.981Z,12.30
2017-07-03T03:42:17.156Z,12.30
2017-07-03T03:44:45.380Z,12.30
2017-07-03T03:47:13.958Z,12.40
2017-07-03T03:49:42.936Z,12.50
2017-07-03T03:52:11.101Z,12.50
2017-07-03T03:54:39.245Z,12.50
2017-07-03T03:57:07.389Z,12.50
2017-07-03T03:59:35.746Z,12.50
2017-07-03T04:02:04.645Z,12.40
2017-07-03T04:04:32.794Z,12.40
2017-07-03T04:07:00.925Z,12.50
2017-07-03T04:09:29.907Z,12.50
2017-07-03T04:11:58.129Z,12.40
2017-07-03T04:14:26.246Z,12.60
2017-07-03T04:16:54.408Z,12.60
2017-07-03T04:19:23.318Z,12.70
2017-07-03T04:21:52.026Z,12.70
2017-07-03T04:24:20.169Z,12.80
2017-07-03T04:26:48.313Z,12.80
2017-07-03T04:29:16.480Z,12.90
2017-07-03T04:31:44.611Z,12.90
2017-07-03T04:34:12.733Z,12.90
2017-07-03T04:36:41.743Z,12.90
2017-07-03T04:39:09.846Z,12.90
2017-07-03T04:41:38.180Z,12.90
2017-07-03T04:44:07.069Z,13.00
2017-07-03T04:46:35.568Z,12.90
2017-07-03T04:49:05.147Z,13.10
2017-07-03T04:51:33.275Z,13.00
2017-07-03T04:54:01.579Z,13.10
2017-07-03T04:56:29.712Z,13.20
2017-07-03T04:58:57.840Z,13.30
2017-07-03T05:01:25.999Z,13.30
2017-07-03T05:03:54.143Z,13.40
2017-07-03T05:06:22.264Z,13.50
2017-07-03T05:08:50.435Z,13.60
2017-07-03T05:11:18.565Z,13.70
2017-07-03T05:13:46.990Z,13.70
2017-07-03T05:16:15.306Z,13.70
2017-07-03T05:18:44.201Z,13.70
2017-07-03T05:21:12.370Z,13.60
2017-07-03T05:23:40.506Z,13.70
2017-07-03T05:26:08.665Z,13.80
2017-07-03T05:28:37.601Z,13.90
2017-07-03T05:31:05.708Z,14.10
2017-07-03T05:33:33.997Z,14.30
2017-07-03T05:36:02.994Z,14.30
2017-07-03T05:38:31.132Z,14.50
2017-07-03T05:40:59.316Z,14.60
2017-07-03T05:43:42.345Z,14.70
2017-07-03T05:46:11.251Z,14.80
2017-07-03T05:48:39.371Z,14.70
2017-07-03T05:51:07.515Z,14.70
2017-07-03T05:53:36.283Z,14.80
2017-07-03T05:56:04.407Z,14.80
2017-07-03T05:58:32.595Z,14.80
2017-07-03T06:01:00.767Z,14.90
2017-07-03T06:03:28.915Z,15.00
2017-07-03T06:05:57.018Z,15.20
2017-07-03T06:08:25.132Z,15.10
2017-07-03T06:10:53.295Z,15.10
2017-07-03T06:13:21.628Z,15.20
2017-07-03T06:15:50.541Z,15.30
2017-07-03T06:18:18.699Z,15.20
2017-07-03T06:20:46.891Z,15.40
2017-07-03T06:23:15.038Z,15.30
2017-07-03T06:25:43.169Z,15.40
2017-07-03T06:28:11.375Z,15.50
2017-07-03T06:30:39.486Z,15.60
2017-07-03T06:33:08.470Z,15.70
2017-07-03T06:35:36.619Z,15.70
2017-07-03T06:38:04.786Z,15.90
2017-07-03T06:40:32.970Z,16.00
2017-07-03T06:43:01.117Z,16.10
2017-07-03T06:45:29.319Z,16.10
2017-07-03T06:47:57.487Z,16.10
2017-07-03T06:50:25.622Z,16.10
2017-07-03T06:52:53.787Z,16.10
2017-07-03T06:55:21.914Z,16.20
2017-07-03T06:57:50.038Z,16.30
2017-07-03T07:00:18.180Z,16.20
2017-07-03T07:02:46.311Z,16.10
2017-07-03T07:05:14.483Z,16.10
2017-07-03T07:07:42.719Z,16.20
2017-07-03T07:10:10.855Z,16.40
2017-07-03T07:12:39.003Z,16.70
2017-07-03T07:15:07.171Z,16.90
2017-07-03T07:17:36.368Z,17.10
2017-07-03T07:20:05.610Z,17.30
2017-07-03T07:22:34.321Z,17.50
2017-07-03T07:25:04.452Z,17.70
2017-07-03T07:27:32.701Z,17.80
2017-07-03T07:30:00.990Z,17.80
2017-07-03T07:32:29.141Z,17.80
2017-07-03T07:34:57.292Z,17.80
2017-07-03T07:37:26.410Z,18.00
2017-07-03T07:39:54.515Z,17.90
2017-07-03T07:42:22.675Z,18.10
2017-07-03T07:44:51.603Z,18.40
2017-07-03T07:47:19.943Z,18.30
2017-07-03T07:49:48.926Z,18.60
2017-07-03T07:52:17.731Z,18.80
2017-07-03T07:54:45.906Z,18.60
2017-07-03T07:57:14.972Z,18.60
2017-07-03T07:59:43.636Z,18.60
2017-07-03T08:02:11.907Z,18.60
2017-07-03T08:04:40.854Z,18.40
2017-07-03T08:07:09.010Z,18.30
2017-07-03T08:09:37.128Z,18.40
2017-07-03T08:12:05.362Z,18.60
2017-07-03T08:14:33.482Z,18.50
2017-07-03T08:17:02.026Z,18.70
2017-07-03T08:19:30.329Z,18.80
2017-07-03T08:21:58.690Z,18.90
2017-07-03T08:24:26.852Z,18.80
2017-07-03T08:26:55.858Z,18.50
2017-07-03T08:29:24.009Z,18.40
2017-07-03T08:31:52.155Z,18.30
2017-07-03T08:34:20.285Z,18.30
2017-07-03T08:36:48.454Z,18.60
2017-07-03T08:39:16.582Z,18.80
2017-07-03T08:41:44.774Z,18.80
2017-07-03T08:44:12.936Z,19.10
2017-07-03T08:46:41.087Z,19.30
2017-07-03T08:49:10.120Z,19.20
2017-07-03T08:51:38.322Z,19.10
2017-07-03T08:54:06.456Z,19.20
2017-07-03T08:56:34.581Z,19.40
2017-07-03T08:59:02.686Z,19.50
2017-07-03T09:01:30.884Z,20.00
2017-07-03T09:03:59.022Z,20.50
2017-07-03T09:06:27.180Z,20.80
2017-07-03T09:08:55.379Z,20.70
2017-07-03T09:11:24.378Z,21.30
2017-07-03T09:13:52.833Z,21.20
2017-07-03T09:16:21.782Z,21.90
2017-07-03T09:18:49.989Z,21.80
2017-07-03T09:21:18.145Z,21.70
2017-07-03T09:23:46.560Z,21.70
2017-07-03T09:26:14.728Z,21.80
2017-07-03T09:28:42.854Z,21.90
2017-07-03T09:31:11.469Z,22.40
2017-07-03T09:33:39.660Z,22.80
2017-07-03T09:36:07.826Z,22.90
2017-07-03T09:38:36.003Z,22.30
2017-07-03T09:41:04.271Z,21.40
2017-07-03T09:43:33.083Z,21.10
2017-07-03T09:46:01.978Z,20.60
2017-07-03T09:48:30.131Z,20.30
2017-07-03T09:50:59.477Z,20.10
2017-07-03T09:53:27.650Z,20.10
2017-07-03T09:55:56.565Z,20.20
2017-07-03T09:58:24.820Z,20.40
2017-07-03T10:00:52.971Z,20.40
2017-07-03T10:03:21.123Z,20.40
2017-07-03T10:05:49.266Z,20.20
2017-07-03T10:08:17.419Z,20.20
2017-07-03T10:10:46.372Z,20.30
2017-07-03T10:13:14.577Z,20.20
2017-07-03T10:15:42.709Z,20.40
2017-07-03T10:18:10.950Z,20.30
2017-07-03T10:20:39.229Z,20.60
2017-07-03T10:23:07.414Z,20.60
2017-07-03T10:25:35.548Z,20.30
2017-07-03T10:28:03.715Z,20.00
2017-07-03T10:30:31.887Z,20.20
2017-07-03T10:33:00.041Z,20.90
2017-07-03T10:35:28.176Z,21.40
2017-07-03T10:37:56.304Z,22.00
2017-07-03T10:40:24.455Z,22.70
2017-07-03T10:42:52.626Z,23.10
2017-07-03T10:45:20.737Z,22.80
2017-07-03T10:47:48.949Z,21.80
2017-07-03T10:50:17.884Z,21.10
2017-07-03T10:52:46.089Z,21.00
2017-07-03T10:55:14.248Z,21.20
2017-07-03T10:57:44.202Z,21.30
2017-07-03T11:00:12.410Z,21.20
2017-07-03T11:02:40.548Z,21.70
2017-07-03T11:05:08.750Z,21.90
2017-07-03T11:07:36.981Z,21.80
2017-07-03T11:10:05.123Z,21.20
2017-07-03T11:12:33.333Z,21.10
2017-07-03T11:15:01.476Z,20.90
2017-07-03T11:17:30.654Z,20.60
2017-07-03T11:19:58.912Z,20.50
2017-07-03T11:22:27.081Z,20.60
2017-07-03T11:24:55.250Z,20.30
2017-07-03T11:27:24.018Z,20.50
2017-07-03T11:29:52.159Z,20.80
2017-07-03T11:32:21.163Z,22.20
2017-07-03T11:34:49.548Z,22.10
2017-07-03T11:37:17.873Z,22.40
2017-07-03T11:39:46.771Z,23.10
2017-07-03T11:42:14.931Z,23.10
2017-07-03T11:44:43.108Z,23.40
2017-07-03T11:47:11.282Z,23.50
2017-07-03T11:49:39.483Z,23.80
2017-07-03T11:52:07.963Z,23.90
2017-07-03T11:54:36.126Z,24.30
2017-07-03T11:57:04.278Z,24.60
2017-07-03T11:59:32.399Z,24.50
2017-07-03T12:02:00.639Z,23.90
2017-07-03T12:04:28.755Z,23.70
2017-07-03T12:06:57.735Z,22.90
2017-07-03T12:09:25.870Z,22.90
2017-07-03T12:11:54.410Z,22.70
2017-07-03T12:14:22.698Z,22.80
2017-07-03T12:16:50.914Z,22.40
2017-07-03T12:19:19.061Z,22.70
2017-07-03T12:21:48.546Z,22.70
2017-07-03T12:24:17.386Z,22.60
2017-07-03T12:26:45.725Z,22.70
2017-07-03T12:29:13.875Z,22.90
2017-07-03T12:31:42.020Z,23.20
2017-07-03T12:34:10.174Z,23.20
2017-07-03T12:36:38.310Z,22.80
2017-07-03T12:39:06.511Z,22.90
2017-07-03T12:41:34.643Z,23.10
2017-07-03T12:44:02.804Z,23.60
2017-07-03T12:46:30.961Z,23.70
2017-07-03T12:48:59.305Z,23.70
2017-07-03T12:51:27.512Z,23.10
2017-07-03T12:53:55.637Z,22.40
2017-07-03T12:56:24.012Z,22.30
2017-07-03T12:58:52.144Z,22.00
2017-07-03T13:01:20.282Z,22.20
2017-07-03T13:03:48.430Z,22.30
2017-07-03T13:06:16.558Z,22.20
2017-07-03T13:08:44.807Z,22.20
2017-07-03T13:11:13.882Z,21.50
2017-07-03T13:13:42.496Z,21.40
2017-07-03T13:16:11.120Z,21.70
2017-07-03T13:18:39.258Z,21.80
2017-07-03T13:21:07.434Z,21.80
2017-07-03T13:23:35.539Z,21.80
2017-07-03T13:26:03.656Z,21.70
2017-07-03T13:28:31.787Z,21.70
2017-07-03T13:30:59.919Z,21.90
2017-07-03T13:33:28.070Z,22.00
2017-07-03T13:35:56.191Z,22.00
2017-07-03T13:38:24.310Z,22.00
2017-07-03T13:40:52.450Z,22.30
2017-07-03T13:43:20.558Z,22.60
2017-07-03T13:45:48.883Z,23.00
2017-07-03T13:48:17.776Z,22.80
2017-07-03T13:50:46.666Z,22.70
2017-07-03T13:53:14.825Z,22.70
2017-07-03T13:55:43.755Z,22.50
2017-07-03T13:58:12.685Z,22.40
2017-07-03T14:00:40.887Z,22.30
2017-07-03T14:03:09.017Z,22.50
2017-07-03T14:05:37.152Z,22.60
2017-07-03T14:08:05.298Z,22.70
2017-07-03T14:10:33.461Z,22.50
2017-07-03T14:13:01.651Z,22.60
2017-07-03T14:15:29.776Z,22.50
2017-07-03T14:17:58.007Z,22.70
2017-07-03T14:20:26.189Z,22.50
2017-07-03T14:22:54.371Z,22.60
2017-07-03T14:25:22.497Z,22.60
2017-07-03T14:27:50.631Z,22.60
2017-07-03T14:30:18.800Z,22.40
2017-07-03T14:32:46.949Z,22.50
2017-07-03T14:35:15.100Z,22.50
2017-07-03T14:37:43.220Z,22.50
2017-07-03T14:40:11.342Z,22.30
2017-07-03T14:42:40.248Z,22.40
2017-07-03T14:45:08.555Z,22.30
2017-07-03T14:47:36.766Z,22.40
2017-07-03T14:50:04.890Z,22.40
2017-07-03T14:52:33.023Z,22.20
2017-07-03T14:55:01.290Z,22.30
2017-07-03T14:57:29.430Z,22.20
2017-07-03T14:59:57.563Z,22.00
2017-07-03T15:02:25.869Z,21.80
2017-07-03T15:04:54.076Z,21.80
2017-07-03T15:07:22.972Z,21.60
2017-07-03T15:09:51.296Z,21.60
2017-07-03T15:12:19.446Z,21.70
2017-07-03T15:14:47.572Z,21.70
2017-07-03T15:17:15.734Z,21.50
2017-07-03T15:19:43.876Z,21.60
2017-07-03T15:22:12.016Z,21.60
2017-07-03T15:24:40.161Z,21.70
2017-07-03T15:27:08.288Z,21.80
2017-07-03T15:29:36.558Z,21.50
2017-07-03T15:32:04.687Z,21.40
2017-07-03T15:34:33.578Z,21.60
2017-07-03T15:37:01.730Z,21.50
2017-07-03T15:39:29.854Z,21.70
2017-07-03T15:41:58.043Z,21.60
2017-07-03T15:44:26.206Z,21.70
2017-07-03T15:46:54.326Z,21.70
2017-07-03T15:49:22.480Z,21.60
2017-07-03T15:51:50.589Z,21.60
2017-07-03T15:54:18.755Z,21.40
2017-07-03T15:56:46.873Z,21.40
2017-07-03T15:59:15.012Z,21.40
2017-07-03T16:01:43.172Z,21.40
2017-07-03T16:04:11.678Z,21.40
2017-07-03T16:06:39.835Z,21.50
2017-07-03T16:09:07.960Z,21.50
2017-07-03T16:11:36.088Z,21.40
2017-07-03T16:14:04.313Z,21.30
2017-07-03T16:16:32.863Z,21.40
2017-07-03T16:19:01.887Z,21.30
2017-07-03T16:21:30.118Z,21.20
2017-07-03T16:23:58.361Z,21.30
2017-07-03T16:26:27.382Z,21.20
2017-07-03T16:28:55.508Z,21.20
2017-07-03T16:31:23.659Z,21.10
2017-07-03T16:33:52.528Z,21.10
2017-07-03T16:36:20.692Z,21.00
2017-07-03T16:38:48.863Z,20.90
2017-07-03T16:41:16.971Z,21.00
2017-07-03T16:43:45.105Z,21.00
2017-07-03T16:46:13.248Z,21.10
2017-07-03T16:48:41.430Z,21.10
2017-07-03T16:51:09.590Z,21.10
2017-07-03T16:53:37.716Z,21.00
2017-07-03T16:56:05.896Z,21.00
2017-07-03T16:58:34.029Z,20.80
2017-07-03T17:01:02.165Z,20.80
2017-07-03T17:03:30.309Z,20.70
2017-07-03T17:05:58.450Z,20.70
2017-07-03T17:08:26.602Z,20.80
2017-07-03T17:10:54.708Z,20.70
2017-07-03T17:13:22.853Z,20.60
2017-07-03T17:15:51.242Z,20.50
2017-07-03T17:18:20.306Z,20.50
2017-07-03T17:20:48.617Z,20.40
2017-07-03T17:23:17.374Z,20.30
2017-07-03T17:25:45.510Z,19.60
2017-07-03T17:28:13.674Z,18.80
2017-07-03T17:30:41.828Z,18.20
2017-07-03T17:33:10.175Z,17.90
2017-07-03T17:35:38.314Z,17.70
2017-07-03T17:38:07.124Z,17.70
2017-07-03T17:40:35.434Z,17.40
2017-07-03T17:43:04.185Z,17.30
2017-07-03T17:45:32.425Z,17.20
2017-07-03T17:48:00.558Z,17.10
2017-07-03T17:50:28.698Z,17.00
2017-07-03T17:52:58.184Z,17.00
2017-07-03T17:55:28.420Z,16.90
2017-07-03T17:57:56.549Z,16.80
2017-07-03T18:00:25.444Z,16.90
2017-07-03T18:02:53.619Z,17.10
2017-07-03T18:05:22.527Z,17.10
2017-07-03T18:07:50.708Z,17.00
2017-07-03T18:10:18.898Z,16.80
2017-07-03T18:12:47.050Z,16.70
2017-07-03T18:15:15.221Z,16.60
2017-07-03T18:17:43.376Z,16.50
2017-07-03T18:20:12.338Z,16.30
2017-07-03T18:22:40.487Z,16.10
2017-07-03T18:25:09.828Z,15.90
2017-07-03T18:27:38.715Z,15.90
2017-07-03T18:30:06.874Z,15.80
2017-07-03T18:32:35.023Z,15.90
2017-07-03T18:35:04.020Z,15.90
2017-07-03T18:37:32.206Z,15.90
2017-07-03T18:40:00.366Z,16.00
2017-07-03T18:42:29.507Z,16.00
2017-07-03T18:44:57.627Z,16.00
2017-07-03T18:47:26.698Z,15.90
2017-07-03T18:49:54.849Z,16.00
2017-07-03T18:52:22.996Z,16.00
2017-07-03T18:54:51.902Z,16.10
2017-07-03T18:57:20.015Z,16.00
2017-07-03T18:59:48.153Z,16.00
2017-07-03T19:02:17.084Z,16.00
2017-07-03T19:04:46.183Z,15.90
2017-07-03T19:07:14.338Z,16.00
2017-07-03T19:09:42.585Z,16.00
2017-07-03T19:12:10.938Z,16.10
2017-07-03T19:14:39.070Z,16.00
2017-07-03T19:17:07.204Z,16.10
2017-07-03T19:19:36.158Z,16.10
2017-07-03T19:22:06.190Z,16.10
2017-07-03T19:24:34.450Z,16.00
2017-07-03T19:27:02.673Z,16.10
2017-07-03T19:29:32.162Z,16.20
2017-07-03T19:32:00.316Z,16.30
2017-07-03T19:34:28.488Z,16.20
2017-07-03T19:36:58.166Z,16.20
2017-07-03T19:39:27.635Z,16.20
2017-07-03T19:41:55.791Z,16.20
2017-07-03T19:44:26.233Z,16.20
2017-07-03T19:46:54.404Z,16.20
2017-07-03T19:49:22.982Z,16.20
2017-07-03T19:51:51.670Z,16.20
2017-07-03T19:54:20.078Z,16.20
2017-07-03T19:56:49.150Z,16.00
2017-07-03T19:59:17.269Z,16.00
2017-07-03T20:01:45.820Z,16.00
2017-07-03T20:04:14.333Z,15.90
2017-07-03T20:06:42.457Z,15.90
2017-07-03T20:09:10.723Z,15.90
2017-07-03T20:11:41.264Z,15.80
2017-07-03T20:14:09.662Z,15.80
2017-07-03T20:16:37.797Z,15.80
2017-07-03T20:19:06.744Z,15.80
2017-07-03T20:21:35.600Z,15.80
2017-07-03T20:24:03.957Z,15.90
2017-07-03T20:26:32.137Z,15.80
2017-07-03T20:29:00.284Z,15.80
2017-07-03T20:31:28.437Z,15.80
2017-07-03T20:33:56.611Z,15.80
2017-07-03T20:36:25.671Z,15.80
2017-07-03T20:38:54.136Z,15.80
2017-07-03T20:41:23.485Z,15.80
2017-07-03T20:43:51.697Z,15.70
2017-07-03T20:46:19.971Z,15.80
2017-07-03T20:48:48.119Z,15.80
2017-07-03T20:51:16.331Z,15.80
2017-07-03T20:53:44.512Z,15.80
2017-07-03T20:56:12.636Z,15.80
2017-07-03T20:58:40.809Z,15.70
2017-07-03T21:01:09.018Z,15.80
2017-07-03T21:03:37.186Z,15.80
2017-07-03T21:06:05.384Z,15.70
2017-07-03T21:08:33.534Z,15.80
2017-07-03T21:11:01.702Z,15.80
2017-07-03T21:13:30.578Z,15.80
2017-07-03T21:15:58.755Z,15.70
2017-07-03T21:18:27.003Z,15.80
2017-07-03T21:20:55.890Z,15.70
2017-07-03T21:23:24.956Z,15.80
2017-07-03T21:25:53.142Z,15.80
2017-07-03T21:28:21.310Z,15.80
2017-07-03T21:30:49.463Z,15.80
2017-07-03T21:33:17.653Z,15.80
2017-07-03T21:35:45.794Z,15.80
2017-07-03T21:38:13.920Z,15.80
2017-07-03T21:40:42.073Z,15.70
2017-07-03T21:43:10.977Z,15.70
2017-07-03T21:45:39.120Z,15.70
2017-07-03T21:48:07.278Z,15.70
2017-07-03T21:50:35.417Z,15.60
2017-07-03T21:53:03.609Z,15.50
2017-07-03T21:55:32.519Z,15.50
2017-07-03T21:58:00.651Z,15.50
2017-07-03T22:00:28.875Z,15.40
2017-07-03T22:02:57.004Z,15.40
2017-07-03T22:05:26.362Z,15.40
2017-07-03T22:07:54.517Z,15.30
2017-07-03T22:10:23.404Z,15.30
2017-07-03T22:12:51.575Z,15.30
2017-07-03T22:15:19.695Z,15.20
2017-07-03T22:17:47.838Z,15.30
2017-07-03T22:20:15.969Z,15.20
2017-07-03T22:22:44.118Z,15.30
2017-07-03T22:25:13.066Z,15.30
2017-07-03T22:27:41.224Z,15.20
2017-07-03T22:30:09.414Z,15.30
2017-07-03T22:32:37.653Z,15.30
2017-07-03T22:35:06.172Z,15.30
2017-07-03T22:37:34.554Z,15.30
2017-07-03T22:40:02.720Z,15.20
2017-07-03T22:42:30.871Z,15.20
2017-07-03T22:44:59.017Z,15.20
2017-07-03T22:47:27.184Z,15.10
2017-07-03T22:49:55.359Z,15.10
2017-07-03T22:52:24.057Z,15.20
2017-07-03T22:54:52.269Z,15.20
2017-07-03T22:57:20.409Z,15.20
2017-07-03T22:59:48.584Z,15.20
2017-07-03T23:02:16.784Z,15.20
2017-07-03T23:04:45.027Z,15.10
2017-07-03T23:07:13.221Z,15.10
2017-07-03T23:09:41.416Z,15.10
2017-07-03T23:12:09.655Z,15.20
2017-07-03T23:14:37.809Z,15.20
2017-07-03T23:17:06.725Z,15.20
2017-07-03T23:19:35.985Z,15.20
2017-07-03T23:22:04.115Z,15.20
2017-07-03T23:24:32.290Z,15.20
2017-07-03T23:27:00.428Z,15.20
2017-07-03T23:29:28.583Z,15.20
2017-07-03T23:31:57.604Z,15.20
2017-07-03T23:34:25.750Z,15.20
2017-07-03T23:36:54.701Z,15.30
2017-07-03T23:39:22.854Z,15.20
2017-07-03T23:41:51.001Z,15.20
2017-07-03T23:44:19.219Z,15.30
2017-07-03T23:46:47.402Z,15.30
2017-07-03T23:49:15.586Z,15.20
2017-07-03T23:51:43.727Z,15.20
2017-07-03T23:54:11.961Z,15.20
2017-07-03T23:56:40.199Z,15.20
2017-07-03T23:59:08.333Z,15.20
